Time;durP1;ratioP1;P1;durP2;ratioP2;P2;SDS_P1;SDS_P2;PMS_P1;PMS_P2;Temp;Humidity;BMP_temperature;BMP_pressure;BME280_temperature;BME280_humidity;BME280_pressure;Samples;Min_cycle;Max_cycle;Signal;HPM_P1;HPM_P2
2022/04/04 00:00:01;;;;;;;3.45;1.10;;;23.50;96.30;;;;;;5073643;28;20111;-76
2022/04/04 00:02:28;;;;;;;3.47;1.20;;;23.60;95.40;;;;;;5073654;28;20024;-76
2022/04/04 00:04:55;;;;;;;2.88;1.40;;;23.60;95.50;;;;;;5073404;28;20052;-76
2022/04/04 00:07:23;;;;;;;2.70;1.05;;;23.70;95.90;;;;;;5074865;28;20039;-76
2022/04/04 00:09:50;;;;;;;2.45;1.00;;;23.80;96.30;;;;;;5073547;28;20366;-77
2022/04/04 00:12:17;;;;;;;3.40;1.08;;;23.80;95.20;;;;;;5074747;28;20023;-77
2022/04/04 00:14:45;;;;;;;5.72;1.10;;;24.00;95.50;;;;;;5074691;28;20076;-77
2022/04/04 00:17:12;;;;;;;4.65;1.00;;;24.10;94.50;;;;;;5073411;28;20031;-76
2022/04/04 00:19:40;;;;;;;3.00;1.20;;;24.10;94.90;;;;;;5073441;28;20059;-77
2022/04/04 00:22:07;;;;;;;2.05;0.90;;;24.20;94.50;;;;;;5073229;28;20032;-77
2022/04/04 00:24:36;;;;;;;3.47;1.25;;;24.30;94.90;;;;;;5073290;28;20077;-78
2022/04/04 00:27:03;;;;;;;1.90;0.90;;;24.50;94.50;;;;;;5074723;28;20048;-76
2022/04/04 00:29:31;;;;;;;2.45;0.90;;;24.50;92.90;;;;;;5074853;28;20108;-77
2022/04/04 00:31:58;;;;;;;4.47;1.10;;;24.60;93.90;;;;;;5073297;28;20541;-77
2022/04/04 00:34:26;;;;;;;2.95;0.98;;;24.60;94.50;;;;;;5074650;28;20055;-76
2022/04/04 00:36:53;;;;;;;2.20;1.10;;;24.90;94.10;;;;;;5074546;28;20048;-76
2022/04/04 00:39:20;;;;;;;2.08;1.27;;;24.90;91.70;;;;;;5074668;28;20108;-76
2022/04/04 00:41:49;;;;;;;1.95;0.90;;;24.90;92.40;;;;;;5073102;28;20113;-77
2022/04/04 00:44:16;;;;;;;2.10;0.80;;;24.80;92.60;;;;;;5074541;28;20131;-77
2022/04/04 00:46:44;;;;;;;2.92;1.15;;;25.00;92.00;;;;;;5071892;28;20024;-78
2022/04/04 00:49:12;;;;;;;2.95;0.80;;;24.90;92.20;;;;;;5073529;28;20110;-77
2022/04/04 00:51:39;;;;;;;2.40;0.80;;;24.80;91.40;;;;;;5074364;28;20028;-76
2022/04/04 00:54:08;;;;;;;3.15;0.98;;;24.90;91.80;;;;;;5073114;28;20017;-77
2022/04/04 00:56:37;;;;;;;5.78;1.13;;;25.00;92.10;;;;;;5074111;28;20506;-77
2022/04/04 00:59:05;;;;;;;2.53;0.90;;;25.20;92.00;;;;;;5072980;28;20512;-77
2022/04/04 01:01:33;;;;;;;1.63;0.68;;;25.10;92.50;;;;;;5074351;28;20021;-77
2022/04/04 01:04:01;;;;;;;3.83;0.85;;;25.30;93.20;;;;;;5073903;28;20438;-76
2022/04/04 01:06:29;;;;;;;3.00;1.00;;;25.50;93.40;;;;;;5072796;28;20027;-76
2022/04/04 01:08:56;;;;;;;2.47;1.02;;;25.50;92.30;;;;;;5074050;28;20021;-77
2022/04/04 01:11:23;;;;;;;3.03;0.73;;;25.30;94.20;;;;;;5073941;28;20016;-76
2022/04/04 01:13:51;;;;;;;2.90;1.05;;;25.60;92.70;;;;;;5073890;28;20099;-76
2022/04/04 01:16:19;;;;;;;2.58;0.88;;;25.80;93.00;;;;;;5073886;28;20043;-75
2022/04/04 01:18:46;;;;;;;2.88;1.00;;;25.90;92.60;;;;;;5073771;28;20017;-76
2022/04/04 01:21:18;;;;;;;2.60;0.73;;;25.90;91.50;;;;;;5073867;28;20024;-76
2022/04/04 01:23:49;;;;;;;3.30;0.80;;;25.80;91.70;;;;;;5072339;28;20024;-76
2022/04/04 01:26:20;;;;;;;4.45;1.00;;;25.60;91.40;;;;;;5072287;28;20016;-76
2022/04/04 01:28:47;;;;;;;3.63;1.00;;;25.60;92.20;;;;;;5073575;28;20021;-75
2022/04/04 01:31:15;;;;;;;3.90;1.05;;;25.80;92.20;;;;;;5073594;28;20025;-75
2022/04/04 01:33:43;;;;;;;2.15;0.80;;;25.80;92.00;;;;;;5073420;28;20511;-76
2022/04/04 01:36:10;;;;;;;3.72;1.10;;;25.90;91.20;;;;;;5073470;28;20478;-74
2022/04/04 01:38:37;;;;;;;4.93;0.90;;;26.00;91.70;;;;;;5071882;28;20381;-75
2022/04/04 01:41:05;;;;;;;3.03;1.20;;;25.90;90.50;;;;;;5071975;28;20166;-75
2022/04/04 01:43:32;;;;;;;2.03;1.00;;;25.90;91.60;;;;;;5073372;28;20025;-75
2022/04/04 01:48:45;;;;;;;2.75;1.08;;;26.30;92.10;;;;;;5073211;28;20050;-76
2022/04/04 01:51:12;;;;;;;2.50;0.90;;;26.40;91.30;;;;;;5073486;28;20443;-76
2022/04/04 01:53:39;;;;;;;3.13;0.90;;;26.20;90.80;;;;;;5073108;28;20033;-77
2022/04/04 01:56:07;;;;;;;4.90;1.45;;;26.20;90.60;;;;;;5073258;28;20481;-77
2022/04/04 01:58:35;;;;;;;4.13;1.05;;;26.30;92.90;;;;;;5071306;28;20020;-76
2022/04/04 02:01:08;;;;;;;2.65;0.90;;;26.50;91.30;;;;;;5073151;28;20484;-77
2022/04/04 02:03:38;;;;;;;1.73;0.80;;;26.50;92.00;;;;;;5071538;28;20029;-76
2022/04/04 02:06:06;;;;;;;4.90;0.73;;;26.40;90.70;;;;;;5073021;28;20039;-77
2022/04/04 02:08:33;;;;;;;4.47;0.90;;;26.40;91.10;;;;;;5072861;28;20112;-76
2022/04/04 02:11:02;;;;;;;2.80;0.70;;;26.60;93.20;;;;;;5073488;28;20040;-77
2022/04/04 02:13:30;;;;;;;2.35;1.00;;;26.60;91.20;;;;;;5072906;28;20025;-76
2022/04/04 02:16:02;;;;;;;6.50;0.90;;;26.80;91.60;;;;;;5072736;28;20103;-75
2022/04/04 02:18:31;;;;;;;3.33;1.00;;;26.90;91.50;;;;;;5071455;28;20028;-74
2022/04/04 02:20:59;;;;;;;3.40;0.70;;;27.10;91.70;;;;;;5072781;28;20027;-76
2022/04/04 02:23:27;;;;;;;3.55;1.10;;;26.90;90.20;;;;;;5071347;28;20036;-76
2022/04/04 02:25:56;;;;;;;1.90;0.80;;;27.10;92.60;;;;;;5071237;28;20434;-76
2022/04/04 02:28:24;;;;;;;2.65;0.75;;;27.40;91.60;;;;;;5072440;28;20064;-75
2022/04/04 02:30:52;;;;;;;2.83;0.80;;;27.20;90.30;;;;;;5072701;28;20024;-75
2022/04/04 02:33:20;;;;;;;1.17;0.75;;;26.80;90.40;;;;;;5072763;28;20180;-76
2022/04/04 02:35:50;;;;;;;1.80;0.70;;;26.70;90.30;;;;;;5072634;28;20330;-74
2022/04/04 02:38:18;;;;;;;2.38;0.55;;;26.60;91.30;;;;;;5072525;28;20384;-76
2022/04/04 02:40:46;;;;;;;1.60;0.80;;;26.40;90.80;;;;;;5070959;28;20025;-76
2022/04/04 02:43:13;;;;;;;2.38;0.95;;;26.00;90.70;;;;;;5072463;28;20021;-75
2022/04/04 02:45:41;;;;;;;2.08;0.90;;;25.80;91.30;;;;;;5070874;28;20032;-76
2022/04/04 02:48:09;;;;;;;3.33;0.80;;;25.80;92.30;;;;;;5072332;28;20070;-77
2022/04/04 02:50:36;;;;;;;2.72;0.90;;;25.80;91.30;;;;;;5072215;28;20048;-75
2022/04/04 02:53:04;;;;;;;3.70;0.88;;;25.90;90.90;;;;;;5072141;28;20425;-75
2022/04/04 02:58:17;;;;;;;3.33;0.70;;;26.60;90.70;;;;;;5072184;28;20127;-75
2022/04/04 03:00:45;;;;;;;3.13;0.77;;;27.00;90.90;;;;;;5072034;28;20013;-75
2022/04/04 03:03:12;;;;;;;2.95;0.90;;;27.00;91.00;;;;;;5071967;28;20438;-74
2022/04/04 03:05:40;;;;;;;2.58;0.68;;;27.40;91.60;;;;;;5071718;28;20489;-75
2022/04/04 03:08:08;;;;;;;1.75;0.65;;;27.80;92.40;;;;;;5070552;28;20020;-74
2022/04/04 03:10:36;;;;;;;3.33;0.65;;;28.00;91.70;;;;;;5071132;28;20115;-74
2022/04/04 03:13:05;;;;;;;2.70;0.75;;;28.00;90.80;;;;;;5071877;28;20476;-74
2022/04/04 03:15:34;;;;;;;2.05;0.80;;;28.00;91.40;;;;;;5070388;28;20444;-75
2022/04/04 03:18:03;;;;;;;3.20;1.23;;;28.20;91.70;;;;;;5070569;28;20447;-75
2022/04/04 03:20:32;;;;;;;2.72;0.75;;;28.40;90.10;;;;;;5071879;28;20475;-75
2022/04/04 03:23:00;;;;;;;2.13;0.77;;;28.20;90.30;;;;;;5072099;28;20028;-75
2022/04/04 03:25:28;;;;;;;2.67;1.00;;;28.10;91.50;;;;;;5072057;28;20023;-75
2022/04/04 03:27:56;;;;;;;2.42;0.98;;;28.30;89.80;;;;;;5070317;28;20024;-74
2022/04/04 03:30:26;;;;;;;1.92;0.80;;;28.60;88.90;;;;;;5070168;28;20056;-74
2022/04/04 03:32:55;;;;;;;;;;;28.20;89.60;;;;;;5070606;28;20450;-74
2022/04/04 03:35:23;;;;;;;2.20;0.85;;;28.10;90.30;;;;;;5071715;28;19919;-75
2022/04/04 03:37:52;;;;;;;2.90;0.80;;;28.30;90.70;;;;;;5070162;28;20020;-75
2022/04/04 03:40:21;;;;;;;2.65;0.90;;;28.50;90.20;;;;;;5071578;28;20110;-75
2022/04/04 03:42:52;;;;;;;2.38;0.70;;;28.60;90.80;;;;;;5072210;28;20035;-75
2022/04/04 03:45:20;;;;;;;3.13;0.70;;;28.60;89.60;;;;;;5071672;28;20028;-75
2022/04/04 03:47:49;;;;;;;3.20;0.90;;;28.70;88.50;;;;;;5071480;28;20070;-74
2022/04/04 03:50:17;;;;;;;5.32;0.93;;;28.80;89.10;;;;;;5071423;28;20052;-73
2022/04/04 03:52:53;;;;;;;2.40;1.00;;;28.80;88.90;;;;;;5069954;28;20496;-74
2022/04/04 03:55:23;;;;;;;4.35;1.20;;;28.90;90.00;;;;;;5071547;28;20021;-74
2022/04/04 03:57:51;;;;;;;;;;;28.50;88.30;;;;;;5071944;28;20019;-76
2022/04/04 04:00:20;;;;;;;1.67;0.77;;;28.50;87.80;;;;;;5071608;28;19905;-75
2022/04/04 04:02:47;;;;;;;3.67;1.00;;;28.30;88.30;;;;;;5070205;28;20028;-75
2022/04/04 04:05:15;;;;;;;2.03;0.60;;;28.40;89.30;;;;;;5071290;28;20467;-75
2022/04/04 04:07:43;;;;;;;1.27;0.65;;;28.50;86.50;;;;;;5071345;28;20504;-76
2022/04/04 04:10:13;;;;;;;3.03;0.80;;;28.70;89.80;;;;;;5071545;28;20035;-73
2022/04/04 04:12:43;;;;;;;1.52;0.70;;;28.50;87.90;;;;;;5071410;28;20060;-74
2022/04/04 04:15:12;;;;;;;3.35;0.98;;;28.40;87.60;;;;;;5071445;28;20021;-74
2022/04/04 04:17:40;;;;;;;4.10;1.02;;;28.80;88.90;;;;;;5071395;28;20029;-75
2022/04/04 04:20:20;;;;;;;2.45;0.90;;;28.70;86.60;;;;;;5070107;28;20044;-75
2022/04/04 04:22:53;;;;;;;2.45;0.77;;;28.50;87.20;;;;;;5072828;28;20513;-75
2022/04/04 04:25:22;;;;;;;2.63;0.95;;;28.80;88.80;;;;;;5074922;28;20108;-75
2022/04/04 04:27:49;;;;;;;2.28;0.60;;;29.10;86.00;;;;;;5073471;28;20409;-76
2022/04/04 04:30:17;;;;;;;3.25;0.55;;;29.00;87.70;;;;;;5074908;28;20048;-75
2022/04/04 04:32:50;;;;;;;2.20;0.70;;;28.80;86.30;;;;;;5074603;28;20032;-75
2022/04/04 04:35:18;;;;;;;2.92;0.90;;;28.70;87.50;;;;;;5073445;28;20476;-76
2022/04/04 04:37:46;;;;;;;6.72;1.40;;;28.90;89.80;;;;;;5073254;28;20524;-76
2022/04/04 04:40:14;;;;;;;4.38;1.60;;;29.20;88.50;;;;;;5074723;28;20024;-76
2022/04/04 04:42:44;;;;;;;2.47;1.00;;;29.30;88.20;;;;;;5074674;28;20052;-76
2022/04/04 04:45:11;;;;;;;3.10;0.90;;;29.40;86.70;;;;;;5073347;28;20028;-76
2022/04/04 04:47:39;;;;;;;2.72;0.70;;;29.50;85.70;;;;;;5074646;28;20086;-77
2022/04/04 04:50:07;;;;;;;2.38;0.90;;;29.20;87.00;;;;;;5073217;28;20098;-76
2022/04/04 04:52:35;;;;;;;1.98;0.80;;;29.10;85.10;;;;;;5074271;28;20028;-75
2022/04/04 04:55:04;;;;;;;2.90;1.00;;;28.90;86.40;;;;;;5073171;28;20430;-76
2022/04/04 04:57:32;;;;;;;4.00;0.85;;;29.00;87.90;;;;;;5074317;28;20024;-76
2022/04/04 05:00:03;;;;;;;3.58;1.00;;;29.10;86.20;;;;;;5074418;28;20366;-75
2022/04/04 05:02:30;;;;;;;1.80;0.65;;;29.30;84.70;;;;;;5074291;28;20024;-76
2022/04/04 05:04:59;;;;;;;1.95;0.80;;;29.00;82.40;;;;;;5074033;28;20425;-75
2022/04/04 05:07:28;;;;;;;2.65;0.80;;;28.90;84.50;;;;;;5074145;28;20025;-75
2022/04/04 05:09:55;;;;;;;3.30;0.55;;;28.70;84.60;;;;;;5074064;28;20082;-76
2022/04/04 05:12:23;;;;;;;3.40;1.33;;;28.50;82.40;;;;;;5074107;28;20405;-75
2022/04/04 05:14:51;;;;;;;1.80;0.93;;;28.50;84.80;;;;;;5073921;28;20432;-76
2022/04/04 05:17:18;;;;;;;3.28;1.02;;;28.40;84.40;;;;;;5073989;28;20381;-75
2022/04/04 05:19:46;;;;;;;2.72;1.00;;;28.50;83.30;;;;;;5072390;28;20470;-74
2022/04/04 05:22:14;;;;;;;2.53;1.02;;;28.70;83.40;;;;;;5072488;28;20439;-73
2022/04/04 05:24:41;;;;;;;2.65;1.05;;;28.50;83.30;;;;;;5072375;28;20389;-73
2022/04/04 05:27:09;;;;;;;2.13;0.70;;;28.20;86.90;;;;;;5073736;28;20017;-73
2022/04/04 05:29:37;;;;;;;3.13;0.93;;;27.90;83.90;;;;;;5073696;28;20075;-75
2022/04/04 05:32:05;;;;;;;2.03;0.90;;;27.70;84.00;;;;;;5073594;28;20370;-73
2022/04/04 05:34:32;;;;;;;3.22;1.15;;;27.60;87.40;;;;;;5072904;28;20012;-75
2022/04/04 05:37:00;;;;;;;4.13;1.00;;;27.50;85.50;;;;;;5073641;28;20028;-74
2022/04/04 05:39:28;;;;;;;4.38;1.00;;;27.60;89.90;;;;;;5073414;28;20021;-74
2022/04/04 05:41:55;;;;;;;2.88;1.15;;;27.10;92.40;;;;;;5073415;28;20108;-74
2022/04/04 05:44:22;;;;;;;3.00;1.02;;;26.80;94.30;;;;;;5073357;28;20154;-74
2022/04/04 05:46:50;;;;;;;2.63;0.95;;;26.60;95.20;;;;;;5072002;28;20032;-74
2022/04/04 05:49:18;;;;;;;3.97;1.00;;;26.40;95.80;;;;;;5071899;28;20032;-73
2022/04/04 05:51:45;;;;;;;2.00;1.00;;;26.20;96.00;;;;;;5071870;28;20029;-74
2022/04/04 05:54:14;;;;;;;3.45;1.10;;;26.20;96.00;;;;;;5073084;28;20028;-74
2022/04/04 05:56:43;;;;;;;1.58;0.82;;;26.00;96.30;;;;;;5073102;28;20013;-74
2022/04/04 05:59:13;;;;;;;3.22;1.00;;;26.00;96.50;;;;;;5071772;28;20017;-74
2022/04/04 06:01:41;;;;;;;1.70;0.70;;;25.70;97.40;;;;;;5071603;28;20480;-74
2022/04/04 06:04:08;;;;;;;2.42;0.90;;;25.60;97.10;;;;;;5072690;28;20618;-74
2022/04/04 06:06:35;;;;;;;1.95;0.73;;;25.30;97.40;;;;;;5071498;28;20111;-73
2022/04/04 06:09:03;;;;;;;3.45;1.02;;;25.20;98.20;;;;;;5072910;28;20127;-73
2022/04/04 06:11:30;;;;;;;2.85;0.80;;;25.20;98.90;;;;;;5072696;28;20103;-74
2022/04/04 06:13:58;;;;;;;1.58;0.70;;;25.10;98.80;;;;;;5071470;28;20028;-74
2022/04/04 06:16:25;;;;;;;3.70;0.73;;;25.00;98.70;;;;;;5072727;28;20021;-74
2022/04/04 06:18:53;;;;;;;3.60;0.77;;;24.90;99.10;;;;;;5071451;28;20032;-74
2022/04/04 06:21:20;;;;;;;2.40;0.70;;;24.60;98.70;;;;;;5072652;28;20078;-74
2022/04/04 06:23:47;;;;;;;5.28;1.13;;;24.60;99.30;;;;;;5072604;28;20027;-74
2022/04/04 06:26:15;;;;;;;2.00;0.63;;;24.70;99.90;;;;;;5072467;28;20029;-74
2022/04/04 06:28:42;;;;;;;5.38;1.63;;;24.60;99.90;;;;;;5071141;28;20050;-74
2022/04/04 06:31:10;;;;;;;1.50;0.70;;;24.40;99.90;;;;;;5072325;28;20024;-74
2022/04/04 06:33:39;;;;;;;2.22;0.75;;;24.40;99.90;;;;;;5072388;28;20032;-74
2022/04/04 06:36:07;;;;;;;3.83;1.05;;;24.40;99.90;;;;;;5072402;28;20425;-73
2022/04/04 06:38:34;;;;;;;3.85;0.80;;;24.50;99.90;;;;;;5072428;28;20488;-74
2022/04/04 06:41:02;;;;;;;1.92;0.90;;;24.40;99.90;;;;;;5072186;28;20104;-74
2022/04/04 06:43:29;;;;;;;4.97;1.17;;;24.40;99.90;;;;;;5070974;28;20096;-75
2022/04/04 06:45:56;;;;;;;4.43;0.90;;;24.40;99.90;;;;;;5071677;28;20029;-75
2022/04/04 06:48:24;;;;;;;2.83;0.85;;;24.10;99.90;;;;;;5072277;28;20447;-76
2022/04/04 06:50:51;;;;;;;1.85;0.90;;;23.90;99.90;;;;;;5072191;28;20024;-75
2022/04/04 06:53:21;;;;;;;3.15;1.13;;;23.90;99.90;;;;;;5072197;28;20370;-75
2022/04/04 06:55:49;;;;;;;2.40;0.90;;;23.80;99.90;;;;;;5072119;28;20017;-76
2022/04/04 06:58:17;;;;;;;3.08;1.02;;;23.80;99.90;;;;;;5072217;28;20021;-75
2022/04/04 07:00:47;;;;;;;3.05;0.73;;;23.70;99.90;;;;;;5072268;28;20225;-75
2022/04/04 07:03:14;;;;;;;2.05;0.80;;;23.70;99.90;;;;;;5072498;28;20021;-76
2022/04/04 07:05:41;;;;;;;3.15;0.88;;;23.70;99.90;;;;;;5072039;28;20045;-75
2022/04/04 07:08:10;;;;;;;3.25;1.00;;;23.60;99.90;;;;;;5070892;28;20029;-77
2022/04/04 07:10:38;;;;;;;3.72;1.20;;;23.50;99.90;;;;;;5072326;28;20104;-74
2022/04/04 07:13:05;;;;;;;2.95;0.70;;;23.50;99.90;;;;;;5072017;28;20057;-75
2022/04/04 07:15:33;;;;;;;2.88;0.93;;;23.40;99.90;;;;;;5072032;28;20370;-75
2022/04/04 07:18:02;;;;;;;1.60;1.00;;;23.30;99.90;;;;;;5070707;28;20489;-74
2022/04/04 07:20:29;;;;;;;3.80;0.80;;;23.30;99.90;;;;;;5070847;28;20385;-74
2022/04/04 07:22:57;;;;;;;3.85;0.98;;;23.10;99.90;;;;;;5072088;28;20024;-74
2022/04/04 07:25:24;;;;;;;4.88;1.13;;;23.00;99.90;;;;;;5072107;28;20099;-74
2022/04/04 07:27:51;;;;;;;4.18;0.88;;;23.00;99.90;;;;;;5072135;28;20048;-75
2022/04/04 07:30:20;;;;;;;1.95;0.90;;;22.90;99.90;;;;;;5071075;28;20035;-75
2022/04/04 07:32:49;;;;;;;4.63;0.80;;;22.80;99.90;;;;;;5072072;28;20548;-76
2022/04/04 07:35:18;;;;;;;3.13;0.85;;;22.70;99.90;;;;;;5072880;28;20020;-75
2022/04/04 07:37:47;;;;;;;1.08;0.70;;;22.60;99.90;;;;;;5071564;28;20083;-77
2022/04/04 07:40:17;;;;;;;3.47;0.80;;;22.50;99.90;;;;;;5071480;28;20021;-77
2022/04/04 07:42:45;;;;;;;3.60;1.00;;;22.40;99.90;;;;;;5070583;28;20025;-75
2022/04/04 07:45:14;;;;;;;3.75;1.20;;;22.20;99.90;;;;;;5072125;28;20458;-75
2022/04/04 07:47:43;;;;;;;3.63;0.90;;;22.10;99.90;;;;;;5070529;28;20032;-75
2022/04/04 07:50:13;;;;;;;5.68;4.60;;;22.00;99.90;;;;;;5070670;28;20036;-76
2022/04/04 07:52:41;;;;;;;3.90;2.95;;;21.90;99.90;;;;;;5072026;28;20048;-76
2022/04/04 07:55:09;;;;;;;3.15;2.65;;;21.90;99.90;;;;;;5071833;28;20431;-75
2022/04/04 07:57:37;;;;;;;3.92;1.55;;;21.80;99.90;;;;;;5074764;28;20469;-75
2022/04/04 08:00:07;;;;;;;3.85;1.45;;;21.70;99.90;;;;;;5075469;28;20573;-75
2022/04/04 08:02:35;;;;;;;2.83;1.17;;;21.70;99.90;;;;;;5075381;28;20028;-75
2022/04/04 08:05:04;;;;;;;3.10;1.60;;;21.70;99.90;;;;;;5073790;28;20132;-75
2022/04/04 08:07:31;;;;;;;3.78;1.48;;;21.60;99.90;;;;;;5073979;28;20035;-75
2022/04/04 08:09:59;;;;;;;3.75;1.10;;;21.50;99.90;;;;;;5075555;28;20017;-75
2022/04/04 08:12:30;;;;;;;2.92;1.10;;;21.50;99.90;;;;;;5075030;28;20029;-75
2022/04/04 08:14:57;;;;;;;3.08;1.10;;;21.30;99.90;;;;;;5073997;28;20025;-75
2022/04/04 08:17:24;;;;;;;4.15;1.30;;;21.20;99.90;;;;;;5073961;28;20435;-74
2022/04/04 08:19:52;;;;;;;3.15;1.48;;;21.10;99.90;;;;;;5073916;28;20507;-76
2022/04/04 08:22:20;;;;;;;6.00;2.75;;;21.00;99.90;;;;;;5075180;28;20025;-75
2022/04/04 08:24:48;;;;;;;6.65;4.50;;;21.00;99.90;;;;;;5074391;28;20020;-75
2022/04/04 08:27:15;;;;;;;6.60;4.30;;;21.00;99.90;;;;;;5074940;28;20440;-75
2022/04/04 08:29:43;;;;;;;6.75;3.83;;;21.00;99.90;;;;;;5073599;28;20024;-75
2022/04/04 08:32:10;;;;;;;9.25;5.40;;;21.00;99.90;;;;;;5073550;28;20515;-75
2022/04/04 08:34:38;;;;;;;12.35;9.43;;;21.00;99.90;;;;;;5074938;28;20016;-75
2022/04/04 08:37:05;;;;;;;7.53;5.28;;;21.00;99.90;;;;;;5074938;28;20020;-75
2022/04/04 08:39:32;;;;;;;5.40;3.10;;;20.90;99.90;;;;;;5073508;28;20031;-76
2022/04/04 08:42:02;;;;;;;5.50;2.00;;;20.90;99.90;;;;;;5074893;28;20024;-75
2022/04/04 08:44:29;;;;;;;4.57;2.20;;;20.80;99.90;;;;;;5075042;28;20039;-76
2022/04/04 08:46:58;;;;;;;3.65;2.00;;;20.80;99.90;;;;;;5073583;28;20025;-76
2022/04/04 08:49:25;;;;;;;3.72;2.33;;;20.80;99.90;;;;;;5074783;28;20061;-78
2022/04/04 08:51:53;;;;;;;6.88;4.40;;;20.70;99.90;;;;;;5073106;28;20177;-76
2022/04/04 08:54:20;;;;;;;6.10;3.63;;;20.60;99.90;;;;;;5074358;28;20072;-76
2022/04/04 08:56:47;;;;;;;4.10;2.83;;;20.50;99.90;;;;;;5073118;28;20549;-76
2022/04/04 08:59:15;;;;;;;4.55;2.50;;;20.50;99.90;;;;;;5072928;28;20511;-76
2022/04/04 09:01:42;;;;;;;6.50;5.75;;;20.50;99.90;;;;;;5073078;28;20020;-76
2022/04/04 09:04:09;;;;;;;10.32;7.05;;;20.40;99.90;;;;;;5072888;28;20493;-75
2022/04/04 09:06:53;;;;;;;5.95;3.97;;;20.40;99.90;;;;;;5074369;28;20013;-75
2022/04/04 09:09:24;;;;;;;3.90;2.80;;;20.30;99.90;;;;;;5072117;28;20024;-75
2022/04/04 09:12:09;;;;;;;6.82;4.10;;;20.30;99.90;;;;;;5074154;28;20354;-75
2022/04/04 09:14:46;;;;;;;11.00;5.40;;;20.20;99.90;;;;;;5074458;28;20017;-76
2022/04/04 09:17:16;;;;;;;9.48;5.78;;;20.10;99.90;;;;;;5073084;28;20028;-76
2022/04/04 09:19:43;;;;;;;6.88;4.57;;;20.00;99.90;;;;;;5074265;28;20119;-76
2022/04/04 09:22:18;;;;;;;6.97;4.03;;;20.00;99.90;;;;;;5072811;28;20035;-76
2022/04/04 09:24:57;;;;;;;7.93;3.95;;;19.90;99.90;;;;;;5074028;28;20025;-76
2022/04/04 09:27:33;;;;;;;7.20;4.00;;;19.80;99.90;;;;;;5073937;28;20104;-75
2022/04/04 09:30:02;;;;;;;7.03;3.75;;;19.80;99.90;;;;;;5074045;28;20025;-76
2022/04/04 09:32:39;;;;;;;6.82;3.72;;;19.80;99.90;;;;;;5073949;28;20420;-76
2022/04/04 09:35:15;;;;;;;5.82;3.60;;;19.80;99.90;;;;;;5073921;28;20017;-75
2022/04/04 09:37:44;;;;;;;6.68;3.80;;;19.80;99.90;;;;;;5072747;28;20024;-75
2022/04/04 09:40:18;;;;;;;10.17;7.37;;;19.80;99.90;;;;;;5072487;28;20025;-77
2022/04/04 09:42:58;;;;;;;11.63;6.63;;;19.80;99.90;;;;;;5072483;28;20265;-76
2022/04/04 09:45:26;;;;;;;;;;;19.80;99.90;;;;;;5072957;28;20025;-77
2022/04/04 09:47:58;;;;;;;8.80;5.03;;;19.80;99.90;;;;;;5073594;28;20364;-77
2022/04/04 09:50:36;;;;;;;7.47;4.60;;;19.80;99.90;;;;;;5072029;28;20117;-75
2022/04/04 09:53:12;;;;;;;12.90;10.95;;;19.70;99.90;;;;;;5071748;28;20020;-74
2022/04/04 09:55:42;;;;;;;14.70;12.85;;;19.60;99.90;;;;;;5071732;28;20032;-74
2022/04/04 09:58:15;;;;;;;14.02;10.57;;;19.60;99.90;;;;;;5073160;28;20048;-75
2022/04/04 10:00:44;;;;;;;12.95;9.30;;;19.60;99.90;;;;;;5072853;28;20477;-75
2022/04/04 10:03:13;;;;;;;11.10;7.45;;;19.50;99.90;;;;;;5071518;28;20124;-77
2022/04/04 10:05:59;;;;;;;7.60;5.03;;;19.50;99.90;;;;;;5071130;28;20053;-76
2022/04/04 10:08:27;;;;;;;7.40;5.18;;;19.60;99.90;;;;;;5071367;28;20032;-76
2022/04/04 10:10:55;;;;;;;9.85;5.60;;;19.60;99.90;;;;;;5071705;28;20374;-74
2022/04/04 10:13:23;;;;;;;9.30;5.15;;;19.50;99.90;;;;;;5073042;28;20017;-74
2022/04/04 10:15:52;;;;;;;6.57;4.40;;;19.40;99.90;;;;;;5072412;28;20035;-74
2022/04/04 10:18:21;;;;;;;8.00;4.40;;;19.40;99.90;;;;;;5072686;28;20024;-74
2022/04/04 10:20:54;;;;;;;7.60;4.18;;;19.30;99.90;;;;;;5072344;28;20049;-74
2022/04/04 10:23:24;;;;;;;5.78;3.95;;;19.20;99.90;;;;;;5071354;28;20099;-74
2022/04/04 10:25:52;;;;;;;4.90;3.72;;;19.20;99.90;;;;;;5071223;28;20111;-74
2022/04/04 10:28:34;;;;;;;6.05;4.18;;;19.10;99.90;;;;;;5072339;28;20021;-74
2022/04/04 10:31:13;;;;;;;6.38;4.10;;;19.00;99.90;;;;;;5072365;28;20488;-74
2022/04/04 10:33:41;;;;;;;6.70;3.85;;;18.90;99.90;;;;;;5071099;28;20028;-75
2022/04/04 10:36:10;;;;;;;8.00;4.05;;;18.80;99.90;;;;;;5072321;28;20380;-74
2022/04/04 10:38:57;;;;;;;6.82;4.25;;;18.80;99.90;;;;;;5072322;28;20492;-75
2022/04/04 10:41:30;;;;;;;8.38;4.20;;;18.70;99.90;;;;;;5072296;28;20020;-75
2022/04/04 10:43:58;;;;;;;6.60;4.20;;;18.60;99.90;;;;;;5072286;28;20029;-75
2022/04/04 10:46:27;;;;;;;7.07;3.50;;;18.60;99.90;;;;;;5072279;28;20083;-75
2022/04/04 10:49:04;;;;;;;6.75;3.80;;;18.60;99.90;;;;;;5070933;28;20054;-75
2022/04/04 10:51:37;;;;;;;5.88;3.55;;;18.50;99.90;;;;;;5070948;28;20032;-75
2022/04/04 10:54:12;;;;;;;6.22;3.83;;;18.50;99.90;;;;;;5071995;28;20481;-74
2022/04/04 10:56:45;;;;;;;5.45;3.63;;;18.50;99.90;;;;;;5072135;28;20017;-74
2022/04/04 10:59:21;;;;;;;4.10;2.92;;;18.40;99.90;;;;;;5072096;28;20048;-75
2022/04/04 11:01:58;;;;;;;6.25;3.20;;;18.40;99.90;;;;;;5070857;28;20020;-74
2022/04/04 11:04:30;;;;;;;6.25;3.30;;;18.40;99.90;;;;;;5071853;28;20045;-74
2022/04/04 11:10:09;;;;;;;7.07;3.47;;;18.30;99.90;;;;;;5072437;28;20031;-75
2022/04/04 11:12:58;;;;;;;5.55;3.30;;;18.30;99.90;;;;;;5071892;28;20495;-75
2022/04/04 11:15:45;;;;;;;6.38;3.53;;;18.30;99.90;;;;;;5071996;28;20442;-74
2022/04/04 11:18:14;;;;;;;8.02;3.22;;;18.30;99.90;;;;;;5071946;28;20024;-75
2022/04/04 11:20:59;;;;;;;5.93;3.17;;;18.40;99.90;;;;;;5071813;28;20016;-74
2022/04/04 11:23:37;;;;;;;5.10;2.75;;;18.30;99.90;;;;;;5072043;28;20016;-74
2022/04/04 11:26:07;;;;;;;6.35;2.70;;;18.30;99.90;;;;;;5070571;28;20078;-74
2022/04/04 11:28:38;;;;;;;6.05;2.90;;;18.30;99.90;;;;;;5070284;28;20136;-74
2022/04/04 11:31:13;;;;;;;4.85;2.97;;;18.30;99.90;;;;;;5072558;28;20032;-74
2022/04/04 11:34:00;;;;;;;6.50;3.53;;;18.30;99.90;;;;;;5075850;28;20024;-75
2022/04/04 11:36:30;;;;;;;6.82;2.90;;;18.30;99.90;;;;;;5074441;28;20115;-74
2022/04/04 11:39:03;;;;;;;6.32;2.88;;;18.30;99.90;;;;;;5075708;28;20070;-75
2022/04/04 11:41:36;;;;;;;5.72;3.17;;;18.30;99.90;;;;;;5075938;28;20052;-75
2022/04/04 11:44:04;;;;;;;5.93;2.85;;;18.30;99.90;;;;;;5074326;28;20393;-75
2022/04/04 11:46:32;;;;;;;4.35;2.70;;;18.30;99.90;;;;;;5074233;28;20035;-74
2022/04/04 11:49:00;;;;;;;3.75;2.38;;;18.20;99.90;;;;;;5074157;28;20021;-74
2022/04/04 11:51:34;;;;;;;5.18;2.70;;;18.20;99.90;;;;;;5074014;28;20021;-74
2022/04/04 11:54:10;;;;;;;6.22;2.28;;;18.20;99.90;;;;;;5075497;28;20032;-75
2022/04/04 11:56:44;;;;;;;3.85;2.22;;;18.10;99.90;;;;;;5074134;28;20048;-76
2022/04/04 11:59:12;;;;;;;5.68;2.85;;;18.10;99.90;;;;;;5075483;28;20033;-75
2022/04/04 12:01:39;;;;;;;6.00;2.78;;;18.00;99.90;;;;;;5057474;28;20081;-75
2022/04/04 12:04:08;;;;;;;6.00;3.17;;;17.90;99.90;;;;;;5075157;28;20457;-77
2022/04/04 12:06:35;;;;;;;5.65;3.40;;;17.80;99.90;;;;;;5075242;28;20395;-75
2022/04/04 12:09:07;;;;;;;5.32;3.00;;;17.70;99.90;;;;;;5075098;28;20032;-75
2022/04/04 12:11:35;;;;;;;5.82;3.40;;;17.70;99.90;;;;;;5075198;28;20040;-75
2022/04/04 12:14:02;;;;;;;4.20;3.03;;;17.70;99.90;;;;;;5075084;28;20078;-74
2022/04/04 12:16:32;;;;;;;4.60;3.38;;;17.60;99.90;;;;;;5074975;28;20048;-74
2022/04/04 12:19:05;;;;;;;4.45;2.95;;;17.60;99.90;;;;;;5075307;28;20028;-74
2022/04/04 12:21:33;;;;;;;6.40;3.22;;;17.60;99.90;;;;;;5073593;28;20028;-74
2022/04/04 12:26:46;;;;;;;8.75;3.53;;;17.60;99.90;;;;;;5075109;28;20028;-74
2022/04/04 12:29:15;;;;;;;6.25;3.00;;;17.60;99.90;;;;;;5073506;28;20024;-74
2022/04/04 12:31:55;;;;;;;5.18;2.72;;;17.60;99.90;;;;;;5073509;28;20036;-74
2022/04/04 12:34:24;;;;;;;6.18;2.90;;;17.50;99.90;;;;;;5073493;28;20032;-74
2022/04/04 12:36:58;;;;;;;6.30;3.05;;;17.50;99.90;;;;;;5074600;28;20028;-74
2022/04/04 12:39:25;;;;;;;6.38;3.00;;;17.40;99.90;;;;;;5074807;28;20422;-74
2022/04/04 12:41:54;;;;;;;4.63;2.72;;;17.40;99.90;;;;;;5074536;28;20029;-74
2022/04/04 12:44:26;;;;;;;4.80;2.92;;;17.30;99.90;;;;;;5073242;28;20035;-74
2022/04/04 12:47:11;;;;;;;5.93;2.97;;;17.30;99.90;;;;;;5074621;28;20012;-74
2022/04/04 12:49:39;;;;;;;5.97;3.10;;;17.30;99.90;;;;;;5073189;28;20036;-74
2022/04/04 12:52:10;;;;;;;5.68;2.80;;;17.20;99.90;;;;;;5074366;28;20024;-74
2022/04/04 12:54:40;;;;;;;5.15;3.13;;;17.10;99.90;;;;;;5072967;28;20485;-74
2022/04/04 12:57:12;;;;;;;4.10;2.72;;;17.10;99.90;;;;;;5072963;28;20025;-74
2022/04/04 12:59:57;;;;;;;6.10;2.90;;;17.10;99.90;;;;;;5074393;28;20108;-74
2022/04/04 13:02:36;;;;;;;5.50;2.63;;;17.10;99.90;;;;;;5074332;28;20139;-74
2022/04/04 13:05:20;;;;;;;4.80;2.63;;;17.00;99.90;;;;;;5074044;28;20048;-74
2022/04/04 13:07:58;;;;;;;4.63;2.70;;;17.10;99.90;;;;;;5074226;28;20040;-74
2022/04/04 13:10:26;;;;;;;4.75;2.80;;;17.10;99.90;;;;;;5072824;28;20036;-74